Time;durP1;ratioP1;P1;durP2;ratioP2;P2;SDS_P1;SDS_P2;PMS_P1;PMS_P2;Temp;Humidity;BMP_temperature;BMP_pressure;BME280_temperature;BME280_humidity;BME280_pressure;Samples;Min_cycle;Max_cycle;Signal;HPM_P1;HPM_P2
2021/09/11 00:00:19;;;;;;;11.38;7.82;;;18.10;93.70;;;;;;5053480;28;20530;-49
2021/09/11 00:02:47;;;;;;;12.13;8.30;;;18.10;93.80;;;;;;5053561;28;20025;-46
2021/09/11 00:05:13;;;;;;;16.05;8.73;;;18.10;94.00;;;;;;5053489;28;20032;-46
2021/09/11 00:07:39;;;;;;;12.80;8.32;;;18.20;93.80;;;;;;5053380;28;20199;-51
2021/09/11 00:10:07;;;;;;;12.70;8.75;;;18.20;93.70;;;;;;5053402;28;20030;-48
2021/09/11 00:12:35;;;;;;;14.95;9.40;;;18.10;93.70;;;;;;5054038;28;20025;-49
2021/09/11 00:15:02;;;;;;;17.40;8.85;;;18.20;93.80;;;;;;5053592;28;20108;-46
2021/09/11 00:17:27;;;;;;;11.48;8.50;;;18.30;93.40;;;;;;5053555;28;20039;-46
2021/09/11 00:19:53;;;;;;;10.55;8.35;;;18.30;93.10;;;;;;5053187;28;20115;-48
2021/09/11 00:22:19;;;;;;;11.70;7.45;;;18.30;93.30;;;;;;5053276;28;20039;-47
2021/09/11 00:24:44;;;;;;;11.18;7.90;;;18.40;93.10;;;;;;5053225;28;20100;-47
2021/09/11 00:27:10;;;;;;;10.45;7.38;;;18.40;92.60;;;;;;5053346;28;20048;-46
2021/09/11 00:29:37;;;;;;;11.20;7.93;;;18.40;92.70;;;;;;5051817;28;20120;-47
2021/09/11 00:32:04;;;;;;;10.63;7.10;;;18.40;92.90;;;;;;5053320;28;20025;-47
2021/09/11 00:34:29;;;;;;;10.82;7.20;;;18.40;92.70;;;;;;5052490;28;20060;-47
2021/09/11 00:36:55;;;;;;;10.32;7.13;;;18.50;92.70;;;;;;5052980;28;20052;-48
2021/09/11 00:39:23;;;;;;;7.82;6.63;;;18.60;92.00;;;;;;5053050;28;20025;-47
2021/09/11 00:41:52;;;;;;;13.65;7.35;;;18.60;92.20;;;;;;5052913;28;20017;-50
2021/09/11 00:44:17;;;;;;;10.02;6.40;;;18.70;91.90;;;;;;5053487;28;20078;-48
2021/09/11 00:46:43;;;;;;;9.88;7.25;;;18.80;91.40;;;;;;5052979;28;20532;-50
2021/09/11 00:49:09;;;;;;;11.93;6.78;;;18.80;91.30;;;;;;5053137;28;20225;-51
2021/09/11 00:51:36;;;;;;;12.23;5.85;;;18.80;91.40;;;;;;5052938;28;20032;-51
2021/09/11 00:54:03;;;;;;;9.93;6.40;;;18.60;91.80;;;;;;5052977;28;20021;-48
2021/09/11 00:56:30;;;;;;;8.50;6.53;;;18.70;91.70;;;;;;5053296;28;20476;-47
2021/09/11 00:58:57;;;;;;;11.02;5.88;;;18.80;91.70;;;;;;5053052;28;20477;-47
2021/09/11 01:01:23;;;;;;;8.13;6.10;;;18.70;91.50;;;;;;5052523;28;20087;-51
2021/09/11 01:03:48;;;;;;;6.53;5.78;;;18.60;91.90;;;;;;5052594;28;20025;-49
2021/09/11 01:06:14;;;;;;;6.82;5.40;;;18.60;92.10;;;;;;5052978;28;20413;-47
2021/09/11 01:08:41;;;;;;;10.98;5.72;;;18.50;92.20;;;;;;5052554;28;20033;-47
2021/09/11 01:11:08;;;;;;;8.98;5.30;;;18.60;92.20;;;;;;5052287;28;20040;-48
2021/09/11 01:13:34;;;;;;;7.57;6.00;;;18.60;92.30;;;;;;5052512;28;20030;-48
2021/09/11 01:16:00;;;;;;;9.52;6.32;;;18.80;91.60;;;;;;5052324;28;20143;-48
2021/09/11 01:18:26;;;;;;;10.45;5.93;;;18.80;91.10;;;;;;5052337;28;20234;-48
2021/09/11 01:20:53;;;;;;;10.30;6.57;;;19.00;90.70;;;;;;5052179;28;20033;-48
2021/09/11 01:23:19;;;;;;;14.25;6.18;;;19.10;90.10;;;;;;5052491;28;20361;-46
2021/09/11 01:25:46;;;;;;;7.93;5.40;;;19.00;90.00;;;;;;5052284;28;20056;-48
2021/09/11 01:28:11;;;;;;;9.13;5.18;;;19.00;90.30;;;;;;5052101;28;20029;-47
2021/09/11 01:30:37;;;;;;;10.77;6.63;;;18.80;90.80;;;;;;5052282;28;20070;-51
2021/09/11 01:33:03;;;;;;;6.25;5.43;;;18.90;90.80;;;;;;5052421;28;20017;-50
2021/09/11 01:35:28;;;;;;;8.23;6.07;;;19.00;90.70;;;;;;5052627;28;20031;-47
2021/09/11 01:37:54;;;;;;;10.55;6.00;;;19.00;90.40;;;;;;5050874;28;20477;-47
2021/09/11 01:40:21;;;;;;;11.32;7.28;;;18.90;90.50;;;;;;5052331;28;20037;-48
2021/09/11 01:42:47;;;;;;;10.18;7.63;;;19.00;90.70;;;;;;5052280;28;20032;-46
2021/09/11 01:45:17;;;;;;;10.63;7.38;;;19.00;90.30;;;;;;5052298;28;20025;-47
2021/09/11 01:47:44;;;;;;;9.50;7.57;;;19.10;90.40;;;;;;5055441;28;20044;-46
2021/09/11 01:50:12;;;;;;;11.63;9.65;;;19.10;90.40;;;;;;5056297;28;20025;-46
2021/09/11 01:52:39;;;;;;;12.43;8.77;;;19.10;90.30;;;;;;5057365;28;20029;-47
2021/09/11 01:55:09;;;;;;;15.88;11.13;;;19.00;90.50;;;;;;5056271;28;20051;-47
2021/09/11 01:57:35;;;;;;;18.58;11.73;;;19.10;90.50;;;;;;5056549;28;20021;-50
2021/09/11 02:00:02;;;;;;;17.50;12.68;;;19.10;90.70;;;;;;5054626;28;20135;-46
2021/09/11 02:02:28;;;;;;;25.33;12.80;;;19.00;90.70;;;;;;5056201;28;20016;-47
2021/09/11 02:04:54;;;;;;;21.88;14.93;;;19.00;91.10;;;;;;5055775;28;20108;-48
2021/09/11 02:07:19;;;;;;;24.98;15.35;;;18.90;91.30;;;;;;5055712;28;20025;-47
2021/09/11 02:09:45;;;;;;;24.02;16.40;;;19.00;91.10;;;;;;5056205;28;20024;-47
2021/09/11 02:12:11;;;;;;;25.27;17.48;;;19.10;90.80;;;;;;5056198;28;20052;-47
2021/09/11 02:14:36;;;;;;;28.45;19.42;;;19.20;90.70;;;;;;5055588;28;20426;-48
2021/09/11 02:17:03;;;;;;;33.65;20.27;;;18.90;91.20;;;;;;5055561;28;20029;-47
2021/09/11 02:19:30;;;;;;;25.48;18.05;;;18.90;91.40;;;;;;5055419;28;20029;-49
2021/09/11 02:21:56;;;;;;;31.13;20.33;;;18.90;91.60;;;;;;5055465;28;20384;-48
2021/09/11 02:24:22;;;;;;;30.20;20.45;;;18.80;91.70;;;;;;5055450;28;20136;-50
2021/09/11 02:26:47;;;;;;;36.53;21.48;;;18.80;91.70;;;;;;5055426;28;20464;-47
2021/09/11 02:29:14;;;;;;;32.53;21.65;;;18.80;91.70;;;;;;5037458;28;20029;-49
2021/09/11 02:31:39;;;;;;;29.42;20.63;;;18.90;91.50;;;;;;5055323;28;20029;-50
2021/09/11 02:34:05;;;;;;;29.95;20.88;;;18.90;91.40;;;;;;5055284;28;20028;-47
2021/09/11 02:36:30;;;;;;;36.03;20.63;;;18.90;91.40;;;;;;5055259;28;20036;-47
2021/09/11 02:38:56;;;;;;;29.08;20.33;;;18.90;91.40;;;;;;5055247;28;20025;-47
2021/09/11 02:41:22;;;;;;;32.60;21.20;;;18.80;91.50;;;;;;5055371;28;20109;-47
2021/09/11 02:43:47;;;;;;;35.28;23.17;;;18.90;91.70;;;;;;5055405;28;20112;-46
2021/09/11 02:46:15;;;;;;;33.75;22.17;;;18.80;91.60;;;;;;5054827;28;20123;-49
2021/09/11 02:48:41;;;;;;;37.70;24.65;;;18.80;91.80;;;;;;5055185;28;20389;-50
2021/09/11 02:51:06;;;;;;;34.47;24.50;;;18.80;91.60;;;;;;5055300;28;20021;-48
2021/09/11 02:53:32;;;;;;;37.17;23.95;;;18.90;91.40;;;;;;5054936;28;20025;-47
2021/09/11 02:55:57;;;;;;;39.58;24.10;;;18.90;91.40;;;;;;5054897;28;20485;-47
2021/09/11 02:58:24;;;;;;;33.13;23.35;;;18.90;91.50;;;;;;5055360;28;20048;-48
2021/09/11 03:00:51;;;;;;;35.95;23.33;;;18.90;91.20;;;;;;5055081;28;20354;-48
2021/09/11 03:03:17;;;;;;;34.42;23.27;;;18.80;91.50;;;;;;5053370;28;20115;-48
2021/09/11 03:05:43;;;;;;;31.30;22.42;;;18.80;91.70;;;;;;5054622;28;20068;-47
2021/09/11 03:08:08;;;;;;;30.88;22.65;;;18.70;92.00;;;;;;5054662;28;20446;-48
2021/09/11 03:10:34;;;;;;;32.60;21.42;;;18.60;92.10;;;;;;5054954;28;20100;-50
2021/09/11 03:13:00;;;;;;;31.90;22.30;;;18.50;92.70;;;;;;5054729;28;20025;-47
2021/09/11 03:15:26;;;;;;;32.63;21.38;;;18.40;92.90;;;;;;5054810;28;20032;-48
2021/09/11 03:17:51;;;;;;;32.47;21.83;;;18.30;92.80;;;;;;5054731;28;20028;-48
2021/09/11 03:20:17;;;;;;;37.90;24.75;;;18.30;93.30;;;;;;5054702;28;20028;-49
2021/09/11 03:22:44;;;;;;;32.67;22.33;;;18.40;93.00;;;;;;5054226;28;20046;-47
2021/09/11 03:25:10;;;;;;;30.55;20.73;;;18.40;93.00;;;;;;5054439;28;20029;-48
2021/09/11 03:27:36;;;;;;;29.10;19.38;;;18.30;93.30;;;;;;5052804;28;20025;-49
2021/09/11 03:30:01;;;;;;;32.30;21.23;;;18.20;93.50;;;;;;5054255;28;20067;-49
2021/09/11 03:32:27;;;;;;;32.90;21.38;;;18.20;93.60;;;;;;5054669;28;20422;-48
2021/09/11 03:34:53;;;;;;;33.17;21.60;;;18.20;93.70;;;;;;5054150;28;20420;-51
2021/09/11 03:37:18;;;;;;;33.88;22.45;;;18.30;93.30;;;;;;5054035;28;20021;-48
2021/09/11 03:39:44;;;;;;;35.42;23.42;;;18.40;93.00;;;;;;5053861;28;20021;-48
2021/09/11 03:42:09;;;;;;;36.00;24.63;;;18.50;92.80;;;;;;5053887;28;20108;-47
2021/09/11 03:44:35;;;;;;;41.95;26.60;;;18.50;92.40;;;;;;5052573;28;20508;-47
2021/09/11 03:47:01;;;;;;;39.47;20.77;;;18.50;92.50;;;;;;5054002;28;20041;-49
2021/09/11 03:49:26;;;;;;;28.88;20.45;;;18.40;92.50;;;;;;5053630;28;20043;-47
2021/09/11 03:51:52;;;;;;;41.40;23.90;;;18.40;92.60;;;;;;5053573;28;20052;-47
2021/09/11 03:54:17;;;;;;;40.22;22.83;;;18.40;92.50;;;;;;5053023;28;20330;-48
2021/09/11 03:56:43;;;;;;;43.50;22.90;;;18.40;92.70;;;;;;5053105;28;20044;-47
2021/09/11 03:59:09;;;;;;;42.88;23.23;;;18.50;92.60;;;;;;5053073;28;20425;-51
2021/09/11 04:01:34;;;;;;;40.80;21.75;;;18.50;92.50;;;;;;5053333;28;20068;-47
2021/09/11 04:04:00;;;;;;;39.80;24.45;;;18.60;92.10;;;;;;5053189;28;20032;-47
2021/09/11 04:06:25;;;;;;;37.17;23.77;;;18.60;92.10;;;;;;5053024;28;20108;-48
2021/09/11 04:08:51;;;;;;;39.22;23.83;;;18.60;92.10;;;;;;5052397;28;20029;-48
2021/09/11 04:11:17;;;;;;;37.80;24.15;;;18.40;92.30;;;;;;5052625;28;20020;-48
2021/09/11 04:13:42;;;;;;;40.35;25.05;;;18.40;92.40;;;;;;5052762;28;20028;-50
2021/09/11 04:16:08;;;;;;;48.65;24.67;;;18.30;92.70;;;;;;5053348;28;20358;-46
2021/09/11 04:18:33;;;;;;;44.78;24.75;;;18.40;92.40;;;;;;5053443;28;20040;-47
2021/09/11 04:20:59;;;;;;;41.60;25.63;;;18.40;92.40;;;;;;5053260;28;20451;-49
2021/09/11 04:23:25;;;;;;;43.03;24.98;;;18.40;92.30;;;;;;5053662;28;20481;-47
2021/09/11 04:25:50;;;;;;;38.13;23.90;;;18.50;92.30;;;;;;5053082;28;20106;-49
2021/09/11 04:28:16;;;;;;;43.88;25.60;;;18.50;92.10;;;;;;5053548;28;20021;-47
2021/09/11 04:30:42;;;;;;;39.97;25.02;;;18.40;91.90;;;;;;5053377;28;20104;-46
2021/09/11 04:33:07;;;;;;;45.95;27.98;;;18.40;92.40;;;;;;5053258;28;20025;-47
2021/09/11 04:35:33;;;;;;;42.40;26.00;;;18.40;92.00;;;;;;5053553;28;20025;-51
2021/09/11 04:37:59;;;;;;;44.58;27.52;;;18.40;92.00;;;;;;5053490;28;20028;-48
2021/09/11 04:40:26;;;;;;;41.85;26.77;;;18.40;92.10;;;;;;5053181;28;20375;-48
2021/09/11 04:42:54;;;;;;;50.30;27.40;;;18.40;92.10;;;;;;5053111;28;20100;-49
2021/09/11 04:45:20;;;;;;;44.65;27.67;;;18.40;91.80;;;;;;5053145;28;20098;-48
2021/09/11 04:47:45;;;;;;;42.78;27.65;;;18.30;91.60;;;;;;5052811;28;20044;-50
2021/09/11 04:50:11;;;;;;;59.67;30.90;;;18.30;91.90;;;;;;5053111;28;20025;-47
2021/09/11 04:52:36;;;;;;;51.03;32.97;;;18.20;91.80;;;;;;5052684;28;20071;-49
2021/09/11 04:55:03;;;;;;;49.28;30.73;;;18.10;91.50;;;;;;5053261;28;20453;-47
2021/09/11 04:57:28;;;;;;;40.55;25.77;;;18.10;91.60;;;;;;5052768;28;20477;-47
2021/09/11 04:59:54;;;;;;;36.35;23.98;;;18.10;91.00;;;;;;5052754;28;20063;-47
2021/09/11 05:02:19;;;;;;;30.40;22.08;;;18.10;90.70;;;;;;5052593;28;20021;-49
2021/09/11 05:04:45;;;;;;;30.55;20.63;;;18.10;90.20;;;;;;5052702;28;20066;-47
2021/09/11 05:07:11;;;;;;;25.98;19.63;;;18.10;89.80;;;;;;5052945;28;20028;-53
2021/09/11 05:09:36;;;;;;;29.00;21.73;;;18.20;89.70;;;;;;5052804;28;20025;-47
2021/09/11 05:12:04;;;;;;;35.17;23.15;;;18.20;89.90;;;;;;5052727;28;20126;-47
2021/09/11 05:14:31;;;;;;;37.00;23.55;;;18.20;90.20;;;;;;5052902;28;20036;-48
2021/09/11 05:16:57;;;;;;;30.52;21.88;;;18.10;90.30;;;;;;5052849;28;20021;-48
2021/09/11 05:19:23;;;;;;;29.70;20.63;;;18.10;89.70;;;;;;5052436;28;20029;-50
2021/09/11 05:21:49;;;;;;;33.08;21.33;;;18.10;89.30;;;;;;5056231;28;20031;-47
2021/09/11 05:24:16;;;;;;;26.75;17.67;;;18.10;88.90;;;;;;5056740;28;20040;-46
2021/09/11 05:26:42;;;;;;;28.98;17.55;;;18.10;88.60;;;;;;5056956;28;20430;-47
2021/09/11 05:29:08;;;;;;;20.58;15.88;;;18.10;89.00;;;;;;5056418;28;20033;-46
2021/09/11 05:31:33;;;;;;;29.27;18.42;;;18.10;88.90;;;;;;5056360;28;20484;-48
2021/09/11 05:33:59;;;;;;;31.33;20.77;;;18.20;88.70;;;;;;5056468;28;20029;-48
2021/09/11 05:36:25;;;;;;;27.27;19.63;;;18.10;88.90;;;;;;5056642;28;20431;-48
2021/09/11 05:38:51;;;;;;;24.60;19.70;;;18.10;89.30;;;;;;5056348;28;20088;-46
2021/09/11 05:41:16;;;;;;;30.75;20.33;;;18.00;89.30;;;;;;5056292;28;20071;-47
2021/09/11 05:43:42;;;;;;;24.55;16.90;;;17.90;89.20;;;;;;5056187;28;20094;-48
2021/09/11 05:46:08;;;;;;;22.48;15.38;;;17.80;88.90;;;;;;5055960;28;20091;-49
2021/09/11 05:48:36;;;;;;;18.70;13.48;;;17.90;88.70;;;;;;5056112;28;20115;-50
2021/09/11 05:51:03;;;;;;;19.13;14.32;;;17.90;88.20;;;;;;5056310;28;20017;-37
2021/09/11 05:53:29;;;;;;;20.73;13.52;;;17.90;88.20;;;;;;5056028;28;20062;-38
2021/09/11 05:55:54;;;;;;;21.10;13.75;;;17.90;87.90;;;;;;5057211;28;20040;-37
2021/09/11 05:58:20;;;;;;;20.02;15.32;;;17.80;88.40;;;;;;5055984;28;20497;-38
2021/09/11 06:00:46;;;;;;;19.40;12.55;;;17.80;88.90;;;;;;5055992;28;20128;-38
2021/09/11 06:03:12;;;;;;;17.45;11.88;;;17.70;88.80;;;;;;5056247;28;20049;-36
2021/09/11 06:05:38;;;;;;;17.33;12.88;;;17.60;88.20;;;;;;5038404;28;20385;-36
2021/09/11 06:08:04;;;;;;;13.35;10.65;;;17.60;87.90;;;;;;5055780;28;20025;-37
2021/09/11 06:10:30;;;;;;;15.63;8.93;;;17.60;87.60;;;;;;5055714;28;20032;-36
2021/09/11 06:12:55;;;;;;;12.38;8.57;;;17.50;87.40;;;;;;5055766;28;20461;-36
2021/09/11 06:15:22;;;;;;;15.68;9.60;;;17.50;87.40;;;;;;5055653;28;20021;-37
2021/09/11 06:17:47;;;;;;;15.20;8.02;;;17.60;86.80;;;;;;5055561;28;20029;-39
2021/09/11 06:20:13;;;;;;;12.88;7.80;;;17.70;86.50;;;;;;5055542;28;20112;-38
2021/09/11 06:22:39;;;;;;;10.55;8.52;;;17.80;86.30;;;;;;5055699;28;20529;-36
2021/09/11 06:25:05;;;;;;;13.15;7.63;;;17.60;86.80;;;;;;5055798;28;20040;-36
2021/09/11 06:27:31;;;;;;;12.65;8.20;;;17.60;86.70;;;;;;5055581;28;20078;-37
2021/09/11 06:29:57;;;;;;;11.75;7.07;;;17.50;86.90;;;;;;5055596;28;20029;-37
2021/09/11 06:32:22;;;;;;;11.65;6.43;;;17.40;87.10;;;;;;5054867;28;20480;-37
2021/09/11 06:34:48;;;;;;;9.35;6.88;;;17.40;87.00;;;;;;5053994;28;20468;-36
2021/09/11 06:37:14;;;;;;;11.80;7.13;;;17.40;87.10;;;;;;5055161;28;20025;-38
2021/09/11 06:39:40;;;;;;;10.10;7.60;;;17.40;87.10;;;;;;5054997;28;20029;-37
2021/09/11 06:42:05;;;;;;;9.85;6.85;;;17.40;87.20;;;;;;5055188;28;20066;-37
2021/09/11 06:44:31;;;;;;;10.73;6.97;;;17.40;86.90;;;;;;5055410;28;20025;-37
2021/09/11 06:46:56;;;;;;;8.77;6.68;;;17.50;86.80;;;;;;5054986;28;20443;-37
2021/09/11 06:49:22;;;;;;;50.40;15.32;;;17.60;86.40;;;;;;5054979;28;20029;-37
2021/09/11 06:51:48;;;;;;;20.17;9.68;;;17.80;86.00;;;;;;5054940;28;20075;-36
2021/09/11 06:54:14;;;;;;;8.88;6.70;;;17.80;85.70;;;;;;5055086;28;20086;-36
2021/09/11 06:56:39;;;;;;;14.38;7.63;;;17.80;85.60;;;;;;5054965;28;20028;-37
2021/09/11 06:59:05;;;;;;;8.50;6.32;;;18.10;84.90;;;;;;5054627;28;20071;-36
2021/09/11 07:01:31;;;;;;;7.88;5.95;;;18.20;84.40;;;;;;5054547;28;20063;-37
2021/09/11 07:03:56;;;;;;;7.35;5.70;;;18.30;83.90;;;;;;5054527;28;20064;-37
2021/09/11 07:06:22;;;;;;;11.10;8.18;;;18.20;84.20;;;;;;5054890;28;20025;-38
2021/09/11 07:08:48;;;;;;;9.93;6.00;;;18.30;83.90;;;;;;5054592;28;20025;-37
2021/09/11 07:11:14;;;;;;;9.35;5.53;;;18.50;83.50;;;;;;5053041;28;20171;-35
2021/09/11 07:13:41;;;;;;;9.45;5.43;;;18.60;81.80;;;;;;5054130;28;20392;-37
2021/09/11 07:16:06;;;;;;;8.60;5.32;;;18.70;81.40;;;;;;5054260;28;20047;-37
2021/09/11 07:18:35;;;;;;;7.43;4.97;;;18.80;81.10;;;;;;5054176;28;20021;-36
2021/09/11 07:21:02;;;;;;;7.22;5.00;;;19.00;81.00;;;;;;5054040;28;20029;-37
2021/09/11 07:23:28;;;;;;;11.55;4.60;;;19.20;81.00;;;;;;5052754;28;20029;-37
2021/09/11 07:25:54;;;;;;;8.45;4.45;;;19.30;79.30;;;;;;5054186;28;20025;-37
2021/09/11 07:28:19;;;;;;;13.30;7.88;;;19.30;79.50;;;;;;5054099;28;20499;-37
2021/09/11 07:30:45;;;;;;;11.43;4.57;;;19.50;79.30;;;;;;5053929;28;20056;-37
2021/09/11 07:33:11;;;;;;;10.00;5.03;;;19.30;80.40;;;;;;5054432;28;20079;-38
2021/09/11 07:35:36;;;;;;;7.05;4.65;;;19.30;80.00;;;;;;5053985;28;20027;-38
2021/09/11 07:38:02;;;;;;;12.65;5.43;;;19.20;80.60;;;;;;5054378;28;20107;-36
2021/09/11 07:40:28;;;;;;;8.23;5.15;;;19.30;80.00;;;;;;5053755;28;20036;-37
2021/09/11 07:42:53;;;;;;;10.45;5.72;;;18.90;81.00;;;;;;5054147;28;20039;-37
2021/09/11 07:45:19;;;;;;;10.25;5.22;;;18.90;81.00;;;;;;5052572;28;20033;-37
2021/09/11 07:47:45;;;;;;;9.32;4.30;;;18.90;81.10;;;;;;5052199;28;20044;-38
2021/09/11 07:50:11;;;;;;;11.93;5.10;;;18.90;80.10;;;;;;5053713;28;20473;-37
2021/09/11 07:52:38;;;;;;;8.48;4.97;;;18.80;81.00;;;;;;5053696;28;20025;-37
2021/09/11 07:55:05;;;;;;;9.07;4.32;;;19.10;80.50;;;;;;5053554;28;20048;-37
2021/09/11 07:57:30;;;;;;;10.80;4.82;;;19.20;79.10;;;;;;5053834;28;20032;-37
2021/09/11 07:59:56;;;;;;;9.95;4.93;;;19.00;79.80;;;;;;5053350;28;20017;-38
2021/09/11 08:02:22;;;;;;;9.38;4.95;;;19.00;79.50;;;;;;5054422;28;20021;-38
2021/09/11 08:04:47;;;;;;;6.47;4.47;;;18.80;79.80;;;;;;5052893;28;20056;-37
2021/09/11 08:07:13;;;;;;;9.07;5.35;;;18.80;80.10;;;;;;5053261;28;20043;-38
2021/09/11 08:09:39;;;;;;;10.13;4.60;;;18.80;80.10;;;;;;5053176;28;20075;-37
2021/09/11 08:12:05;;;;;;;8.43;5.10;;;19.00;80.00;;;;;;5053117;28;20023;-36
2021/09/11 08:14:31;;;;;;;9.00;5.93;;;19.30;78.60;;;;;;5052947;28;20473;-37
2021/09/11 08:16:56;;;;;;;4.75;3.72;;;19.30;78.80;;;;;;5052955;28;20052;-37
2021/09/11 08:19:22;;;;;;;10.30;4.88;;;19.30;78.70;;;;;;5053139;28;20497;-37
2021/09/11 08:21:48;;;;;;;5.55;3.75;;;19.40;78.00;;;;;;5051457;28;20021;-37
2021/09/11 08:24:13;;;;;;;10.10;3.70;;;19.90;76.20;;;;;;5052814;28;20033;-37
2021/09/11 08:26:39;;;;;;;5.20;3.13;;;20.10;76.00;;;;;;5053333;28;20025;-37
2021/09/11 08:29:05;;;;;;;6.63;3.83;;;20.00;76.00;;;;;;5052867;28;20029;-38
2021/09/11 08:31:31;;;;;;;8.93;4.78;;;19.90;76.70;;;;;;5053039;28;20025;-37
2021/09/11 08:33:56;;;;;;;8.05;5.13;;;19.80;76.40;;;;;;5052683;28;20115;-38
2021/09/11 08:36:22;;;;;;;8.75;4.95;;;19.70;76.20;;;;;;5052388;28;20434;-38
2021/09/11 08:38:48;;;;;;;9.48;5.05;;;19.70;76.80;;;;;;5052465;28;20065;-38
2021/09/11 08:41:14;;;;;;;14.57;5.72;;;19.50;77.50;;;;;;5052804;28;20037;-37
2021/09/11 08:43:40;;;;;;;9.75;5.47;;;19.70;76.70;;;;;;5052552;28;20051;-38
2021/09/11 08:46:06;;;;;;;8.60;4.15;;;20.10;76.00;;;;;;5052392;28;20049;-37
2021/09/11 08:48:33;;;;;;;9.55;4.68;;;20.40;74.20;;;;;;5052432;28;20467;-38
2021/09/11 08:50:59;;;;;;;7.40;4.45;;;20.90;72.20;;;;;;5051012;28;20116;-37
2021/09/11 08:53:24;;;;;;;8.60;3.72;;;20.80;72.20;;;;;;5052348;28;20089;-37
2021/09/11 08:55:50;;;;;;;7.43;5.38;;;21.10;71.50;;;;;;5053057;28;20345;-38
2021/09/11 08:58:21;;;;;;;7.15;4.85;;;21.70;68.90;;;;;;5052331;28;20032;-36
2021/09/11 09:00:50;;;;;;;9.07;5.28;;;20.80;70.50;;;;;;5052033;28;20044;-38
2021/09/11 09:03:34;;;;;;;9.75;5.90;;;20.60;71.20;;;;;;5052103;28;20021;-39
2021/09/11 09:06:17;;;;;;;5.07;4.57;;;20.30;72.80;;;;;;5052861;28;20057;-37
2021/09/11 09:08:44;;;;;;;5.70;4.80;;;19.80;74.90;;;;;;5052327;28;20025;-38
2021/09/11 09:11:18;;;;;;;7.80;4.97;;;19.80;74.70;;;;;;5052228;28;20033;-37
2021/09/11 09:13:51;;;;;;;9.27;5.88;;;19.70;75.00;;;;;;5052221;28;20024;-38
2021/09/11 09:16:17;;;;;;;6.78;3.85;;;19.60;75.60;;;;;;5052092;28;20028;-38
2021/09/11 09:18:43;;;;;;;5.85;3.40;;;20.30;73.70;;;;;;5051948;28;20396;-37
2021/09/11 09:21:30;;;;;;;4.38;3.20;;;21.10;70.80;;;;;;5052076;28;20424;-37
2021/09/11 09:24:00;;;;;;;6.72;3.47;;;21.80;68.40;;;;;;5051215;28;20032;-37
2021/09/11 09:26:27;;;;;;;7.72;3.15;;;22.80;64.80;;;;;;5052022;28;20079;-39
2021/09/11 09:29:08;;;;;;;5.97;3.30;;;23.10;63.80;;;;;;5052185;28;20033;-38
2021/09/11 09:31:34;;;;;;;7.63;3.03;;;23.30;61.00;;;;;;5051746;28;20017;-37
2021/09/11 09:34:00;;;;;;;10.68;3.10;;;22.20;64.60;;;;;;5052320;28;20092;-37
2021/09/11 09:36:44;;;;;;;5.97;2.95;;;23.00;62.40;;;;;;5050750;28;20109;-37
2021/09/11 09:39:11;;;;;;;4.88;2.65;;;22.80;62.40;;;;;;5051137;28;20460;-37
2021/09/11 09:41:42;;;;;;;6.47;2.83;;;22.70;63.00;;;;;;5052045;28;20037;-37
2021/09/11 09:44:09;;;;;;;3.97;2.72;;;23.50;60.50;;;;;;5051912;28;20082;-37
2021/09/11 09:46:41;;;;;;;4.30;2.38;;;22.70;62.50;;;;;;5051582;28;20072;-37
2021/09/11 09:49:07;;;;;;;4.85;2.28;;;22.50;62.50;;;;;;5052073;28;20048;-36
2021/09/11 09:51:34;;;;;;;3.63;2.30;;;23.30;60.60;;;;;;5051769;28;20037;-37
2021/09/11 09:54:00;;;;;;;4.95;2.95;;;23.10;61.00;;;;;;5052049;28;20368;-37
2021/09/11 09:56:31;;;;;;;4.53;2.42;;;23.90;58.00;;;;;;5052038;28;20041;-37
2021/09/11 09:58:57;;;;;;;3.50;2.13;;;23.20;60.00;;;;;;5051790;28;20100;-37
2021/09/11 10:01:23;;;;;;;7.55;3.42;;;23.50;59.10;;;;;;5051754;28;20110;-36
2021/09/11 10:03:48;;;;;;;2.92;2.40;;;22.80;60.10;;;;;;5051983;28;20029;-37
2021/09/11 10:06:21;;;;;;;4.25;2.42;;;22.70;61.80;;;;;;5050903;28;20037;-38
2021/09/11 10:09:06;;;;;;;6.30;3.55;;;22.20;62.90;;;;;;5055418;28;20017;-38
2021/09/11 10:11:49;;;;;;;3.60;2.40;;;22.00;62.80;;;;;;5055217;28;20029;-38
2021/09/11 10:14:16;;;;;;;4.65;2.67;;;21.40;64.60;;;;;;5055558;28;20027;-37
2021/09/11 10:16:44;;;;;;;3.97;2.20;;;21.30;65.60;;;;;;5053665;28;20025;-37
2021/09/11 10:19:22;;;;;;;6.50;2.67;;;21.30;65.40;;;;;;5055066;28;20033;-37
2021/09/11 10:21:50;;;;;;;8.60;3.20;;;21.30;65.70;;;;;;5055273;28;20045;-37
2021/09/11 10:24:18;;;;;;;5.95;3.42;;;21.00;67.00;;;;;;5055233;28;20100;-38
2021/09/11 10:26:46;;;;;;;3.40;2.60;;;21.10;66.80;;;;;;5054792;28;20025;-38
2021/09/11 10:29:33;;;;;;;4.72;2.85;;;22.10;64.40;;;;;;5054826;28;20025;-38
2021/09/11 10:32:15;;;;;;;4.93;2.70;;;23.30;59.70;;;;;;5054732;28;20495;-38
2021/09/11 10:34:50;;;;;;;5.68;2.97;;;24.20;57.20;;;;;;5054782;28;20092;-38
2021/09/11 10:37:37;;;;;;;4.43;2.08;;;22.80;60.40;;;;;;5054577;28;20048;-38
2021/09/11 10:40:25;;;;;;;3.47;2.67;;;22.10;62.70;;;;;;5054564;28;20465;-37
2021/09/11 10:43:09;;;;;;;3.63;2.92;;;21.40;64.10;;;;;;5054709;28;20049;-37
2021/09/11 10:46:04;;;;;;;4.55;2.72;;;21.30;64.70;;;;;;5054437;28;20033;-37
2021/09/11 10:48:44;;;;;;;4.22;2.92;;;22.00;63.30;;;;;;5052914;28;20095;-37
2021/09/11 10:51:21;;;;;;;4.85;3.00;;;22.60;61.20;;;;;;5054005;28;20254;-37
2021/09/11 10:54:13;;;;;;;5.47;2.83;;;21.90;62.40;;;;;;5054412;28;20377;-37
2021/09/11 10:56:50;;;;;;;3.90;2.35;;;21.70;64.00;;;;;;5054780;28;20017;-37
2021/09/11 10:59:16;;;;;;;4.72;2.20;;;22.20;62.60;;;;;;5054637;28;20465;-37
2021/09/11 11:02:20;;;;;;;8.55;5.10;;;22.50;61.40;;;;;;5054129;28;20040;-37
2021/09/11 11:04:48;;;;;;;4.57;2.47;;;22.30;63.10;;;;;;5052840;28;20033;-37
2021/09/11 11:07:18;;;;;;;4.07;2.60;;;22.20;63.20;;;;;;5054386;28;20021;-37
2021/09/11 11:10:05;;;;;;;3.90;2.90;;;22.20;63.10;;;;;;5054306;28;20029;-37
2021/09/11 11:12:33;;;;;;;6.95;4.13;;;22.00;63.50;;;;;;5054276;28;20028;-37
2021/09/11 11:15:12;;;;;;;20.13;10.18;;;21.50;64.60;;;;;;5054708;28;20025;-37
2021/09/11 11:17:42;;;;;;;8.90;5.10;;;21.70;64.90;;;;;;5054098;28;20106;-37
2021/09/11 11:20:12;;;;;;;9.18;5.88;;;21.30;65.90;;;;;;5054599;28;20103;-38
2021/09/11 11:22:41;;;;;;;11.25;4.50;;;21.30;66.70;;;;;;5053952;28;20036;-38
2021/09/11 11:25:12;;;;;;;6.20;4.63;;;21.10;67.40;;;;;;5053810;28;20550;-37
2021/09/11 11:27:39;;;;;;;5.80;5.07;;;21.00;68.00;;;;;;5054157;28;20025;-38
2021/09/11 11:30:06;;;;;;;6.75;3.67;;;21.20;67.80;;;;;;5054002;28;20496;-38
2021/09/11 11:32:35;;;;;;;8.55;3.50;;;21.20;67.70;;;;;;5053660;28;20021;-37
2021/09/11 11:35:02;;;;;;;5.00;2.80;;;21.20;67.80;;;;;;5053666;28;20047;-39
2021/09/11 11:37:30;;;;;;;3.38;2.80;;;21.30;67.10;;;;;;5053893;28;20025;-38
2021/09/11 11:39:59;;;;;;;4.07;3.03;;;21.20;67.90;;;;;;5054000;28;20092;-38
2021/09/11 11:42:27;;;;;;;7.22;2.95;;;20.90;68.50;;;;;;5053509;28;20021;-38
2021/09/11 11:44:54;;;;;;;3.28;2.97;;;21.20;67.80;;;;;;5053831;28;20068;-37
2021/09/11 11:47:38;;;;;;;5.68;3.22;;;21.00;68.40;;;;;;5053323;28;20048;-37
2021/09/11 11:50:14;;;;;;;6.40;3.65;;;21.20;68.70;;;;;;5052193;28;20398;-37
2021/09/11 11:52:40;;;;;;;4.43;3.40;;;21.40;67.70;;;;;;5052462;28;20052;-37
2021/09/11 11:55:08;;;;;;;4.05;3.22;;;21.70;66.70;;;;;;5053416;28;20092;-37
2021/09/11 11:57:33;;;;;;;5.65;3.00;;;21.30;67.50;;;;;;5052105;28;20048;-37
2021/09/11 12:00:03;;;;;;;4.80;4.00;;;21.30;67.20;;;;;;5053564;28;20029;-36
2021/09/11 12:02:31;;;;;;;7.17;2.70;;;21.20;68.40;;;;;;5053427;28;20021;-36
2021/09/11 12:05:11;;;;;;;9.13;3.60;;;21.30;68.00;;;;;;5053049;28;20013;-37
2021/09/11 12:07:37;;;;;;;;;;;21.30;67.70;;;;;;5053419;28;20029;-37
2021/09/11 12:10:03;;;;;;;5.15;3.88;;;21.70;67.00;;;;;;5052866;28;20265;-37
2021/09/11 12:12:48;;;;;;;11.15;5.88;;;22.40;65.50;;;;;;5053008;28;20053;-37
2021/09/11 12:15:17;;;;;;;19.40;4.30;;;23.30;62.80;;;;;;5053475;28;20021;-37
2021/09/11 12:18:12;;;;;;;6.60;3.65;;;24.10;59.50;;;;;;5052974;28;20024;-37
2021/09/11 12:20:50;;;;;;;6.97;3.20;;;24.20;59.50;;;;;;5052432;28;20032;-37
2021/09/11 12:23:28;;;;;;;6.47;3.25;;;24.00;60.60;;;;;;5051413;28;20108;-37
2021/09/11 12:26:14;;;;;;;5.40;3.40;;;23.40;61.40;;;;;;5052919;28;20025;-37
2021/09/11 12:28:47;;;;;;;11.80;6.57;;;23.00;63.10;;;;;;5052875;28;20038;-37
2021/09/11 12:31:21;;;;;;;11.05;6.70;;;23.00;63.80;;;;;;5051937;28;20017;-37
2021/09/11 12:33:52;;;;;;;10.57;5.40;;;23.30;63.00;;;;;;5052891;28;20166;-38
2021/09/11 12:36:23;;;;;;;6.97;4.93;;;22.80;63.90;;;;;;5052842;28;20025;-37
2021/09/11 12:38:50;;;;;;;4.72;4.18;;;22.80;64.30;;;;;;5052148;28;20033;-37
2021/09/11 12:41:16;;;;;;;7.80;3.80;;;22.50;64.70;;;;;;5052598;28;20074;-37